Carlos Miguel Gimenez Airport

Jump to: basic info | weather | runways | comments

Related pages: nearby airports | nearby navaids | notams | map

Basic information (top)

Codes: PIL SGPI
Location: lon -26.879999, lat -58.320000, elev 249 ft / 76 m msl
Status: medium_airport

Weather (top)

Current conditions (rec'd 2012/07/15 09:00Z):

SGPI 150900Z 14014KT CAVOK 09/06 Q1025

Airport forecast for Formosa Airport 40nm (75km) N (rec'd 2014/10/31 00:00Z):

TAF SARF 302300Z 3100/3124 07005KT 8000 FEW015 SCT100 TX33/3119Z TN19/3105Z PROB40 3104/3110 8000 -TSRA SCT020 FEW050CB BKN100 
      BECMG 3110/3113 8000 TSRA SCT025 FEW050CB BKN100 
      BECMG 3116/3118 9999 SCT025 FEW040TCU BKN100

Runways (top)

02/20: 4,920 x 62 ft (1,500 x 19 m) — paved — not lighted

Latest comments (top)

No comments yet for Carlos Miguel Gimenez Airport

More... (top)

See also NOTAMs and nearby airports and navaids, or visit the Carlos Miguel Gimenez Airport page at the main OurAirports website..